sensor_id;sensor_type;location;lat;lon;timestamp;P1;durP1;ratioP1;P2;durP2;ratioP2
9708;SDS011;4893;42.024;23.098;2022-08-16T00:00:20;16.50;;;11.53;;
9708;SDS011;4893;42.024;23.098;2022-08-16T00:02:48;16.37;;;13.07;;
9708;SDS011;4893;42.024;23.098;2022-08-16T00:05:23;19.20;;;12.53;;
9708;SDS011;4893;42.024;23.098;2022-08-16T00:07:50;14.97;;;11.87;;
9708;SDS011;4893;42.024;23.098;2022-08-16T00:10:18;15.00;;;12.30;;
9708;SDS011;4893;42.024;23.098;2022-08-16T00:12:44;17.67;;;12.83;;
9708;SDS011;4893;42.024;23.098;2022-08-16T00:15:13;15.77;;;12.37;;
9708;SDS011;4893;42.024;23.098;2022-08-16T00:17:41;16.30;;;12.57;;
9708;SDS011;4893;42.024;23.098;2022-08-16T00:20:07;25.43;;;18.30;;
9708;SDS011;4893;42.024;23.098;2022-08-16T00:22:34;20.80;;;15.23;;
9708;SDS011;4893;42.024;23.098;2022-08-16T00:25:02;16.13;;;12.93;;
9708;SDS011;4893;42.024;23.098;2022-08-16T00:27:29;17.43;;;12.57;;
9708;SDS011;4893;42.024;23.098;2022-08-16T00:29:54;19.13;;;13.20;;
9708;SDS011;4893;42.024;23.098;2022-08-16T00:32:20;18.43;;;12.57;;
9708;SDS011;4893;42.024;23.098;2022-08-16T00:34:54;14.97;;;12.17;;
9708;SDS011;4893;42.024;23.098;2022-08-16T00:37:23;15.87;;;11.70;;
9708;SDS011;4893;42.024;23.098;2022-08-16T00:39:50;16.43;;;12.07;;
9708;SDS011;4893;42.024;23.098;2022-08-16T00:42:17;15.07;;;11.97;;
9708;SDS011;4893;42.024;23.098;2022-08-16T00:44:45;17.67;;;12.47;;
9708;SDS011;4893;42.024;23.098;2022-08-16T00:47:16;17.33;;;12.20;;
9708;SDS011;4893;42.024;23.098;2022-08-16T00:49:43;16.87;;;13.70;;
9708;SDS011;4893;42.024;23.098;2022-08-16T00:52:08;19.33;;;12.90;;
9708;SDS011;4893;42.024;23.098;2022-08-16T00:54:34;19.90;;;13.17;;
9708;SDS011;4893;42.024;23.098;2022-08-16T00:57:02;17.47;;;12.77;;
9708;SDS011;4893;42.024;23.098;2022-08-16T00:59:29;16.80;;;12.97;;
9708;SDS011;4893;42.024;23.098;2022-08-16T01:01:58;18.47;;;12.80;;
9708;SDS011;4893;42.024;23.098;2022-08-16T01:04:25;17.33;;;12.33;;
9708;SDS011;4893;42.024;23.098;2022-08-16T01:06:51;15.57;;;12.70;;
9708;SDS011;4893;42.024;23.098;2022-08-16T01:09:20;17.67;;;13.00;;
9708;SDS011;4893;42.024;23.098;2022-08-16T01:11:46;17.13;;;13.07;;
9708;SDS011;4893;42.024;23.098;2022-08-16T01:14:34;24.60;;;13.13;;
9708;SDS011;4893;42.024;23.098;2022-08-16T01:17:02;18.73;;;12.77;;
9708;SDS011;4893;42.024;23.098;2022-08-16T01:19:51;18.90;;;13.97;;
9708;SDS011;4893;42.024;23.098;2022-08-16T01:22:27;17.23;;;13.10;;
9708;SDS011;4893;42.024;23.098;2022-08-16T01:25:18;15.60;;;12.90;;
9708;SDS011;4893;42.024;23.098;2022-08-16T01:27:49;17.10;;;14.03;;
9708;SDS011;4893;42.024;23.098;2022-08-16T01:30:19;17.50;;;13.20;;
9708;SDS011;4893;42.024;23.098;2022-08-16T01:32:52;17.40;;;12.60;;
9708;SDS011;4893;42.024;23.098;2022-08-16T01:35:24;21.77;;;13.47;;
9708;SDS011;4893;42.024;23.098;2022-08-16T01:37:55;22.93;;;13.00;;
9708;SDS011;4893;42.024;23.098;2022-08-16T01:40:25;16.30;;;12.70;;
9708;SDS011;4893;42.024;23.098;2022-08-16T01:42:53;21.27;;;14.40;;
9708;SDS011;4893;42.024;23.098;2022-08-16T01:45:19;18.53;;;12.93;;
9708;SDS011;4893;42.024;23.098;2022-08-16T01:47:46;18.30;;;14.43;;
9708;SDS011;4893;42.024;23.098;2022-08-16T01:50:14;21.80;;;13.93;;
9708;SDS011;4893;42.024;23.098;2022-08-16T01:52:40;23.13;;;14.20;;
9708;SDS011;4893;42.024;23.098;2022-08-16T01:55:07;19.43;;;14.30;;
9708;SDS011;4893;42.024;23.098;2022-08-16T01:57:33;20.17;;;14.47;;
9708;SDS011;4893;42.024;23.098;2022-08-16T01:59:59;23.47;;;14.27;;
9708;SDS011;4893;42.024;23.098;2022-08-16T02:02:25;24.47;;;13.97;;
9708;SDS011;4893;42.024;23.098;2022-08-16T02:04:51;17.63;;;13.57;;
9708;SDS011;4893;42.024;23.098;2022-08-16T02:07:17;17.00;;;13.17;;
9708;SDS011;4893;42.024;23.098;2022-08-16T02:09:45;19.03;;;14.00;;
9708;SDS011;4893;42.024;23.098;2022-08-16T02:12:12;20.10;;;13.27;;
9708;SDS011;4893;42.024;23.098;2022-08-16T02:14:39;17.23;;;13.53;;
9708;SDS011;4893;42.024;23.098;2022-08-16T02:17:06;21.40;;;14.60;;
9708;SDS011;4893;42.024;23.098;2022-08-16T02:19:34;17.03;;;12.93;;
9708;SDS011;4893;42.024;23.098;2022-08-16T02:22:02;16.60;;;13.90;;
9708;SDS011;4893;42.024;23.098;2022-08-16T02:24:29;19.07;;;13.80;;
9708;SDS011;4893;42.024;23.098;2022-08-16T02:26:55;18.97;;;14.03;;
9708;SDS011;4893;42.024;23.098;2022-08-16T02:29:21;17.73;;;13.87;;
9708;SDS011;4893;42.024;23.098;2022-08-16T02:31:47;22.37;;;13.83;;
9708;SDS011;4893;42.024;23.098;2022-08-16T02:34:15;19.27;;;13.13;;
9708;SDS011;4893;42.024;23.098;2022-08-16T02:36:41;19.53;;;13.37;;
9708;SDS011;4893;42.024;23.098;2022-08-16T02:39:07;18.70;;;13.50;;
9708;SDS011;4893;42.024;23.098;2022-08-16T02:41:34;19.30;;;13.53;;
9708;SDS011;4893;42.024;23.098;2022-08-16T02:44:01;17.43;;;13.67;;
9708;SDS011;4893;42.024;23.098;2022-08-16T02:46:26;20.53;;;13.43;;
9708;SDS011;4893;42.024;23.098;2022-08-16T02:48:52;16.33;;;12.93;;
9708;SDS011;4893;42.024;23.098;2022-08-16T02:51:18;19.97;;;13.90;;
9708;SDS011;4893;42.024;23.098;2022-08-16T02:53:44;19.00;;;14.23;;
9708;SDS011;4893;42.024;23.098;2022-08-16T02:56:14;16.93;;;13.27;;
9708;SDS011;4893;42.024;23.098;2022-08-16T02:58:42;17.73;;;14.10;;
9708;SDS011;4893;42.024;23.098;2022-08-16T03:01:08;18.30;;;14.30;;
9708;SDS011;4893;42.024;23.098;2022-08-16T03:03:34;17.67;;;13.60;;
9708;SDS011;4893;42.024;23.098;2022-08-16T03:06:01;15.77;;;12.30;;
9708;SDS011;4893;42.024;23.098;2022-08-16T03:08:27;24.80;;;13.63;;
9708;SDS011;4893;42.024;23.098;2022-08-16T03:10:52;19.20;;;13.43;;
9708;SDS011;4893;42.024;23.098;2022-08-16T03:13:18;18.20;;;13.77;;
9708;SDS011;4893;42.024;23.098;2022-08-16T03:15:44;18.80;;;13.80;;
9708;SDS011;4893;42.024;23.098;2022-08-16T03:18:11;24.33;;;13.43;;
9708;SDS011;4893;42.024;23.098;2022-08-16T03:20:37;22.50;;;13.70;;
9708;SDS011;4893;42.024;23.098;2022-08-16T03:23:03;24.73;;;13.80;;
9708;SDS011;4893;42.024;23.098;2022-08-16T03:25:29;18.13;;;13.30;;
9708;SDS011;4893;42.024;23.098;2022-08-16T03:27:55;17.67;;;13.03;;
9708;SDS011;4893;42.024;23.098;2022-08-16T03:30:22;17.03;;;13.13;;
9708;SDS011;4893;42.024;23.098;2022-08-16T03:32:49;18.30;;;14.10;;
9708;SDS011;4893;42.024;23.098;2022-08-16T03:35:16;16.40;;;12.27;;
9708;SDS011;4893;42.024;23.098;2022-08-16T03:37:44;19.73;;;13.40;;
9708;SDS011;4893;42.024;23.098;2022-08-16T03:40:11;18.00;;;12.87;;
9708;SDS011;4893;42.024;23.098;2022-08-16T03:42:38;19.03;;;12.90;;
9708;SDS011;4893;42.024;23.098;2022-08-16T03:45:04;20.13;;;13.73;;
9708;SDS011;4893;42.024;23.098;2022-08-16T03:47:30;26.27;;;13.30;;
9708;SDS011;4893;42.024;23.098;2022-08-16T03:49:56;18.93;;;12.97;;
9708;SDS011;4893;42.024;23.098;2022-08-16T03:52:22;20.83;;;13.80;;
9708;SDS011;4893;42.024;23.098;2022-08-16T03:54:48;19.90;;;12.70;;
9708;SDS011;4893;42.024;23.098;2022-08-16T03:57:14;15.87;;;12.33;;
9708;SDS011;4893;42.024;23.098;2022-08-16T03:59:39;16.57;;;12.97;;
9708;SDS011;4893;42.024;23.098;2022-08-16T04:02:05;18.00;;;13.23;;
9708;SDS011;4893;42.024;23.098;2022-08-16T04:04:31;17.50;;;13.33;;
9708;SDS011;4893;42.024;23.098;2022-08-16T04:07:04;19.33;;;13.23;;
9708;SDS011;4893;42.024;23.098;2022-08-16T04:09:31;18.00;;;12.30;;
9708;SDS011;4893;42.024;23.098;2022-08-16T04:11:57;18.43;;;13.13;;
9708;SDS011;4893;42.024;23.098;2022-08-16T04:14:23;19.93;;;14.67;;
9708;SDS011;4893;42.024;23.098;2022-08-16T04:16:48;19.83;;;13.23;;
9708;SDS011;4893;42.024;23.098;2022-08-16T04:19:14;19.83;;;13.37;;
9708;SDS011;4893;42.024;23.098;2022-08-16T04:21:39;21.43;;;14.97;;
9708;SDS011;4893;42.024;23.098;2022-08-16T04:24:05;20.07;;;13.93;;
9708;SDS011;4893;42.024;23.098;2022-08-16T04:26:31;18.73;;;13.37;;
9708;SDS011;4893;42.024;23.098;2022-08-16T04:31:26;24.67;;;14.17;;
9708;SDS011;4893;42.024;23.098;2022-08-16T04:33:52;21.30;;;13.43;;
9708;SDS011;4893;42.024;23.098;2022-08-16T04:36:23;20.90;;;13.77;;
9708;SDS011;4893;42.024;23.098;2022-08-16T04:38:50;19.10;;;13.50;;
9708;SDS011;4893;42.024;23.098;2022-08-16T04:41:15;19.40;;;13.53;;
9708;SDS011;4893;42.024;23.098;2022-08-16T04:43:41;23.50;;;13.90;;
9708;SDS011;4893;42.024;23.098;2022-08-16T04:46:07;27.37;;;14.50;;
9708;SDS011;4893;42.024;23.098;2022-08-16T04:48:33;18.50;;;13.90;;
9708;SDS011;4893;42.024;23.098;2022-08-16T04:50:59;19.70;;;13.63;;
9708;SDS011;4893;42.024;23.098;2022-08-16T04:53:25;19.60;;;13.23;;
9708;SDS011;4893;42.024;23.098;2022-08-16T04:55:50;15.03;;;11.57;;
9708;SDS011;4893;42.024;23.098;2022-08-16T04:58:15;18.23;;;11.63;;
9708;SDS011;4893;42.024;23.098;2022-08-16T05:00:41;15.03;;;9.53;;
9708;SDS011;4893;42.024;23.098;2022-08-16T05:03:07;12.53;;;10.10;;
9708;SDS011;4893;42.024;23.098;2022-08-16T05:05:35;12.50;;;9.20;;
9708;SDS011;4893;42.024;23.098;2022-08-16T05:08:03;9.57;;;8.20;;
9708;SDS011;4893;42.024;23.098;2022-08-16T05:10:29;14.53;;;8.60;;
9708;SDS011;4893;42.024;23.098;2022-08-16T05:12:56;10.33;;;8.13;;
9708;SDS011;4893;42.024;23.098;2022-08-16T05:15:22;10.13;;;8.40;;
9708;SDS011;4893;42.024;23.098;2022-08-16T05:17:48;11.53;;;8.90;;
9708;SDS011;4893;42.024;23.098;2022-08-16T05:20:13;11.07;;;9.93;;
9708;SDS011;4893;42.024;23.098;2022-08-16T05:22:39;11.67;;;9.50;;
9708;SDS011;4893;42.024;23.098;2022-08-16T05:25:07;11.97;;;9.80;;
9708;SDS011;4893;42.024;23.098;2022-08-16T05:27:33;13.13;;;10.87;;
9708;SDS011;4893;42.024;23.098;2022-08-16T05:29:59;18.27;;;10.63;;
9708;SDS011;4893;42.024;23.098;2022-08-16T05:32:24;54.10;;;14.80;;
9708;SDS011;4893;42.024;23.098;2022-08-16T05:34:50;17.40;;;13.83;;
9708;SDS011;4893;42.024;23.098;2022-08-16T05:37:15;17.33;;;11.50;;
9708;SDS011;4893;42.024;23.098;2022-08-16T05:39:41;17.83;;;11.17;;
9708;SDS011;4893;42.024;23.098;2022-08-16T05:42:06;18.97;;;11.47;;
9708;SDS011;4893;42.024;23.098;2022-08-16T05:44:31;21.07;;;11.83;;
9708;SDS011;4893;42.024;23.098;2022-08-16T05:46:58;24.83;;;14.00;;
9708;SDS011;4893;42.024;23.098;2022-08-16T05:49:25;25.57;;;10.73;;
9708;SDS011;4893;42.024;23.098;2022-08-16T05:51:52;15.70;;;11.03;;
9708;SDS011;4893;42.024;23.098;2022-08-16T05:54:19;12.50;;;11.30;;
9708;SDS011;4893;42.024;23.098;2022-08-16T05:56:46;15.97;;;10.70;;
9708;SDS011;4893;42.024;23.098;2022-08-16T05:59:13;19.07;;;12.13;;
9708;SDS011;4893;42.024;23.098;2022-08-16T06:01:40;27.27;;;13.23;;
9708;SDS011;4893;42.024;23.098;2022-08-16T06:04:08;21.63;;;12.03;;
9708;SDS011;4893;42.024;23.098;2022-08-16T06:06:34;13.37;;;11.03;;
9708;SDS011;4893;42.024;23.098;2022-08-16T06:08:59;16.73;;;11.83;;
9708;SDS011;4893;42.024;23.098;2022-08-16T06:11:25;16.47;;;11.50;;
9708;SDS011;4893;42.024;23.098;2022-08-16T06:13:50;16.37;;;11.23;;
9708;SDS011;4893;42.024;23.098;2022-08-16T06:16:16;13.13;;;11.00;;
9708;SDS011;4893;42.024;23.098;2022-08-16T06:18:42;14.90;;;10.63;;
9708;SDS011;4893;42.024;23.098;2022-08-16T06:21:09;15.53;;;11.07;;
9708;SDS011;4893;42.024;23.098;2022-08-16T06:23:36;16.10;;;12.17;;
9708;SDS011;4893;42.024;23.098;2022-08-16T06:26:02;14.63;;;11.13;;
9708;SDS011;4893;42.024;23.098;2022-08-16T06:28:28;14.13;;;11.27;;
9708;SDS011;4893;42.024;23.098;2022-08-16T06:30:53;24.83;;;12.83;;
9708;SDS011;4893;42.024;23.098;2022-08-16T06:33:19;19.47;;;12.00;;
9708;SDS011;4893;42.024;23.098;2022-08-16T06:55:40;14.87;;;12.40;;
9708;SDS011;4893;42.024;23.098;2022-08-16T07:00:52;15.17;;;11.77;;
9708;SDS011;4893;42.024;23.098;2022-08-16T07:13:23;28.90;;;14.70;;
9708;SDS011;4893;42.024;23.098;2022-08-16T07:15:49;16.20;;;12.93;;
9708;SDS011;4893;42.024;23.098;2022-08-16T07:24:58;15.63;;;12.03;;
9708;SDS011;4893;42.024;23.098;2022-08-16T07:27:24;13.43;;;11.60;;
9708;SDS011;4893;42.024;23.098;2022-08-16T07:29:49;16.80;;;11.43;;
9708;SDS011;4893;42.024;23.098;2022-08-16T07:32:16;19.03;;;11.70;;
9708;SDS011;4893;42.024;23.098;2022-08-16T07:34:44;19.90;;;12.90;;
9708;SDS011;4893;42.024;23.098;2022-08-16T07:37:10;16.97;;;11.90;;
9708;SDS011;4893;42.024;23.098;2022-08-16T07:39:40;16.73;;;12.53;;
9708;SDS011;4893;42.024;23.098;2022-08-16T07:42:06;20.33;;;12.97;;
9708;SDS011;4893;42.024;23.098;2022-08-16T07:44:41;15.90;;;12.23;;
9708;SDS011;4893;42.024;23.098;2022-08-16T07:47:06;13.67;;;11.77;;
9708;SDS011;4893;42.024;23.098;2022-08-16T07:49:32;40.03;;;13.27;;
9708;SDS011;4893;42.024;23.098;2022-08-16T07:51:57;16.53;;;10.93;;
9708;SDS011;4893;42.024;23.098;2022-08-16T07:54:22;54.83;;;14.50;;
9708;SDS011;4893;42.024;23.098;2022-08-16T07:56:48;15.57;;;12.40;;
9708;SDS011;4893;42.024;23.098;2022-08-16T07:59:14;13.83;;;12.33;;
9708;SDS011;4893;42.024;23.098;2022-08-16T08:01:39;14.43;;;10.93;;
9708;SDS011;4893;42.024;23.098;2022-08-16T08:04:05;13.10;;;11.50;;
9708;SDS011;4893;42.024;23.098;2022-08-16T08:06:37;13.67;;;11.07;;
9708;SDS011;4893;42.024;23.098;2022-08-16T08:09:03;15.43;;;11.60;;
9708;SDS011;4893;42.024;23.098;2022-08-16T08:11:29;19.10;;;11.00;;
9708;SDS011;4893;42.024;23.098;2022-08-16T08:13:56;20.87;;;11.73;;
9708;SDS011;4893;42.024;23.098;2022-08-16T08:16:26;13.87;;;11.17;;
9708;SDS011;4893;42.024;23.098;2022-08-16T08:18:52;15.83;;;11.20;;
9708;SDS011;4893;42.024;23.098;2022-08-16T08:21:23;15.23;;;10.37;;
9708;SDS011;4893;42.024;23.098;2022-08-16T08:23:49;15.00;;;12.23;;
9708;SDS011;4893;42.024;23.098;2022-08-16T08:26:15;11.50;;;10.40;;
9708;SDS011;4893;42.024;23.098;2022-08-16T08:28:42;11.40;;;10.40;;
9708;SDS011;4893;42.024;23.098;2022-08-16T08:31:07;26.67;;;13.37;;
9708;SDS011;4893;42.024;23.098;2022-08-16T08:33:33;24.63;;;12.03;;
9708;SDS011;4893;42.024;23.098;2022-08-16T08:35:59;12.33;;;10.33;;
9708;SDS011;4893;42.024;23.098;2022-08-16T08:38:27;18.20;;;11.50;;
9708;SDS011;4893;42.024;23.098;2022-08-16T08:40:56;14.37;;;9.37;;
9708;SDS011;4893;42.024;23.098;2022-08-16T08:43:22;13.17;;;10.67;;
9708;SDS011;4893;42.024;23.098;2022-08-16T08:45:48;18.67;;;10.67;;
9708;SDS011;4893;42.024;23.098;2022-08-16T08:48:25;17.03;;;10.67;;
9708;SDS011;4893;42.024;23.098;2022-08-16T08:50:51;10.53;;;9.63;;
9708;SDS011;4893;42.024;23.098;2022-08-16T08:53:16;17.57;;;11.90;;
9708;SDS011;4893;42.024;23.098;2022-08-16T08:55:42;13.73;;;8.87;;
9708;SDS011;4893;42.024;23.098;2022-08-16T08:58:07;9.43;;;8.57;;
9708;SDS011;4893;42.024;23.098;2022-08-16T09:00:34;10.00;;;9.00;;
9708;SDS011;4893;42.024;23.098;2022-08-16T09:03:02;13.40;;;12.17;;
9708;SDS011;4893;42.024;23.098;2022-08-16T09:05:28;13.03;;;9.20;;
9708;SDS011;4893;42.024;23.098;2022-08-16T09:07:53;8.53;;;7.93;;
9708;SDS011;4893;42.024;23.098;2022-08-16T09:10:20;10.27;;;9.07;;
9708;SDS011;4893;42.024;23.098;2022-08-16T09:12:46;7.13;;;6.43;;
9708;SDS011;4893;42.024;23.098;2022-08-16T09:15:12;6.73;;;6.23;;
9708;SDS011;4893;42.024;23.098;2022-08-16T09:17:40;8.23;;;5.93;;
9708;SDS011;4893;42.024;23.098;2022-08-16T09:20:07;4.80;;;4.40;;
9708;SDS011;4893;42.024;23.098;2022-08-16T09:22:34;5.47;;;5.13;;
9708;SDS011;4893;42.024;23.098;2022-08-16T09:25:00;8.67;;;5.60;;
9708;SDS011;4893;42.024;23.098;2022-08-16T09:27:26;8.50;;;5.70;;
9708;SDS011;4893;42.024;23.098;2022-08-16T09:29:52;7.70;;;6.20;;
9708;SDS011;4893;42.024;23.098;2022-08-16T09:32:18;6.37;;;5.77;;
9708;SDS011;4893;42.024;23.098;2022-08-16T09:34:43;12.27;;;6.57;;
9708;SDS011;4893;42.024;23.098;2022-08-16T09:37:09;9.93;;;6.30;;
9708;SDS011;4893;42.024;23.098;2022-08-16T09:39:35;7.17;;;6.43;;
9708;SDS011;4893;42.024;23.098;2022-08-16T09:42:00;6.37;;;5.87;;
9708;SDS011;4893;42.024;23.098;2022-08-16T09:44:27;8.03;;;6.37;;
9708;SDS011;4893;42.024;23.098;2022-08-16T09:46:53;9.87;;;6.27;;
9708;SDS011;4893;42.024;23.098;2022-08-16T09:49:20;11.50;;;5.43;;
9708;SDS011;4893;42.024;23.098;2022-08-16T09:51:46;12.33;;;5.63;;
9708;SDS011;4893;42.024;23.098;2022-08-16T09:54:17;6.03;;;4.83;;
9708;SDS011;4893;42.024;23.098;2022-08-16T09:56:43;5.37;;;3.97;;
9708;SDS011;4893;42.024;23.098;2022-08-16T09:59:09;5.53;;;4.57;;
9708;SDS011;4893;42.024;23.098;2022-08-16T10:01:36;5.30;;;4.90;;
9708;SDS011;4893;42.024;23.098;2022-08-16T10:04:02;8.47;;;5.00;;
9708;SDS011;4893;42.024;23.098;2022-08-16T10:06:29;4.63;;;4.23;;
9708;SDS011;4893;42.024;23.098;2022-08-16T10:08:55;17.57;;;5.47;;
9708;SDS011;4893;42.024;23.098;2022-08-16T10:11:20;5.00;;;4.70;;
9708;SDS011;4893;42.024;23.098;2022-08-16T10:14:04;7.67;;;5.20;;
9708;SDS011;4893;42.024;23.098;2022-08-16T10:16:32;5.50;;;5.07;;
9708;SDS011;4893;42.024;23.098;2022-08-16T10:18:58;14.87;;;5.30;;
9708;SDS011;4893;42.024;23.098;2022-08-16T10:21:24;7.27;;;5.10;;
9708;SDS011;4893;42.024;23.098;2022-08-16T10:23:51;4.90;;;4.50;;
9708;SDS011;4893;42.024;23.098;2022-08-16T10:26:18;11.20;;;4.60;;
9708;SDS011;4893;42.024;23.098;2022-08-16T10:28:45;6.63;;;4.50;;
9708;SDS011;4893;42.024;23.098;2022-08-16T10:31:11;5.20;;;4.80;;
9708;SDS011;4893;42.024;23.098;2022-08-16T10:33:37;6.27;;;4.80;;
9708;SDS011;4893;42.024;23.098;2022-08-16T10:36:04;13.13;;;4.80;;
9708;SDS011;4893;42.024;23.098;2022-08-16T10:38:33;5.10;;;4.67;;
9708;SDS011;4893;42.024;23.098;2022-08-16T10:41:02;17.00;;;5.47;;
9708;SDS011;4893;42.024;23.098;2022-08-16T10:43:29;22.67;;;5.87;;
9708;SDS011;4893;42.024;23.098;2022-08-16T10:45:55;6.90;;;4.43;;
9708;SDS011;4893;42.024;23.098;2022-08-16T10:48:20;7.27;;;4.83;;
9708;SDS011;4893;42.024;23.098;2022-08-16T10:50:46;5.73;;;4.77;;
9708;SDS011;4893;42.024;23.098;2022-08-16T10:53:11;4.40;;;4.13;;
9708;SDS011;4893;42.024;23.098;2022-08-16T10:55:39;4.53;;;4.10;;
9708;SDS011;4893;42.024;23.098;2022-08-16T10:58:06;10.10;;;4.40;;
9708;SDS011;4893;42.024;23.098;2022-08-16T11:00:35;4.73;;;4.00;;
9708;SDS011;4893;42.024;23.098;2022-08-16T11:03:04;7.30;;;4.13;;
9708;SDS011;4893;42.024;23.098;2022-08-16T11:05:30;9.63;;;4.47;;
9708;SDS011;4893;42.024;23.098;2022-08-16T11:07:58;9.70;;;4.20;;
9708;SDS011;4893;42.024;23.098;2022-08-16T11:10:29;3.97;;;3.77;;
9708;SDS011;4893;42.024;23.098;2022-08-16T11:12:57;5.00;;;4.10;;
9708;SDS011;4893;42.024;23.098;2022-08-16T11:15:23;4.60;;;4.30;;
9708;SDS011;4893;42.024;23.098;2022-08-16T11:17:50;6.13;;;4.70;;
9708;SDS011;4893;42.024;23.098;2022-08-16T11:20:16;7.70;;;4.57;;
9708;SDS011;4893;42.024;23.098;2022-08-16T11:22:43;6.30;;;4.57;;
9708;SDS011;4893;42.024;23.098;2022-08-16T11:25:11;6.53;;;4.30;;
9708;SDS011;4893;42.024;23.098;2022-08-16T11:27:39;4.23;;;3.93;;
9708;SDS011;4893;42.024;23.098;2022-08-16T11:30:06;6.93;;;4.50;;
9708;SDS011;4893;42.024;23.098;2022-08-16T11:32:51;8.03;;;3.53;;
9708;SDS011;4893;42.024;23.098;2022-08-16T11:35:18;4.43;;;3.80;;
9708;SDS011;4893;42.024;23.098;2022-08-16T11:37:50;4.30;;;4.00;;
9708;SDS011;4893;42.024;23.098;2022-08-16T11:40:22;6.20;;;3.83;;
9708;SDS011;4893;42.024;23.098;2022-08-16T11:42:50;5.03;;;3.57;;
9708;SDS011;4893;42.024;23.098;2022-08-16T11:45:16;5.97;;;3.33;;
9708;SDS011;4893;42.024;23.098;2022-08-16T11:47:41;6.37;;;4.30;;
9708;SDS011;4893;42.024;23.098;2022-08-16T11:50:07;4.20;;;3.90;;
9708;SDS011;4893;42.024;23.098;2022-08-16T11:52:36;5.10;;;3.77;;
9708;SDS011;4893;42.024;23.098;2022-08-16T11:55:04;4.97;;;4.03;;
9708;SDS011;4893;42.024;23.098;2022-08-16T11:57:31;15.30;;;13.60;;
9708;SDS011;4893;42.024;23.098;2022-08-16T11:59:57;3.67;;;2.70;;
9708;SDS011;4893;42.024;23.098;2022-08-16T12:02:22;9.97;;;4.10;;
9708;SDS011;4893;42.024;23.098;2022-08-16T12:04:49;7.00;;;3.23;;
9708;SDS011;4893;42.024;23.098;2022-08-16T12:07:14;3.47;;;3.17;;
9708;SDS011;4893;42.024;23.098;2022-08-16T12:09:40;2.80;;;2.70;;
9708;SDS011;4893;42.024;23.098;2022-08-16T12:12:05;3.40;;;3.20;;
9708;SDS011;4893;42.024;23.098;2022-08-16T12:14:32;6.47;;;3.17;;
9708;SDS011;4893;42.024;23.098;2022-08-16T12:16:58;8.00;;;3.57;;
9708;SDS011;4893;42.024;23.098;2022-08-16T12:19:26;8.43;;;3.20;;
9708;SDS011;4893;42.024;23.098;2022-08-16T12:21:52;3.67;;;3.30;;
9708;SDS011;4893;42.024;23.098;2022-08-16T12:31:01;5.00;;;3.13;;
9708;SDS011;4893;42.024;23.098;2022-08-16T12:33:26;7.40;;;2.90;;
9708;SDS011;4893;42.024;23.098;2022-08-16T12:35:52;3.20;;;2.83;;
9708;SDS011;4893;42.024;23.098;2022-08-16T12:50:44;4.97;;;2.37;;
9708;SDS011;4893;42.024;23.098;2022-08-16T12:53:11;4.67;;;2.30;;
9708;SDS011;4893;42.024;23.098;2022-08-16T12:55:38;2.13;;;2.03;;
9708;SDS011;4893;42.024;23.098;2022-08-16T12:58:05;4.07;;;2.73;;
9708;SDS011;4893;42.024;23.098;2022-08-16T13:00:30;7.60;;;3.33;;
9708;SDS011;4893;42.024;23.098;2022-08-16T13:02:57;13.37;;;3.47;;
9708;SDS011;4893;42.024;23.098;2022-08-16T13:05:24;10.27;;;3.50;;
9708;SDS011;4893;42.024;23.098;2022-08-16T13:07:50;7.60;;;2.90;;
9708;SDS011;4893;42.024;23.098;2022-08-16T13:10:16;5.13;;;2.83;;
9708;SDS011;4893;42.024;23.098;2022-08-16T13:12:46;9.40;;;7.33;;
9708;SDS011;4893;42.024;23.098;2022-08-16T13:15:17;49.50;;;8.87;;
9708;SDS011;4893;42.024;23.098;2022-08-16T13:17:45;5.50;;;3.50;;
9708;SDS011;4893;42.024;23.098;2022-08-16T13:20:13;5.93;;;3.20;;
9708;SDS011;4893;42.024;23.098;2022-08-16T13:23:04;3.53;;;3.23;;
9708;SDS011;4893;42.024;23.098;2022-08-16T13:25:31;4.60;;;3.10;;
9708;SDS011;4893;42.024;23.098;2022-08-16T13:27:59;7.43;;;4.10;;
9708;SDS011;4893;42.024;23.098;2022-08-16T13:30:27;17.90;;;3.70;;
9708;SDS011;4893;42.024;23.098;2022-08-16T13:32:54;19.37;;;3.83;;
9708;SDS011;4893;42.024;23.098;2022-08-16T13:35:20;13.67;;;4.23;;
9708;SDS011;4893;42.024;23.098;2022-08-16T13:37:47;14.77;;;3.27;;
9708;SDS011;4893;42.024;23.098;2022-08-16T13:40:13;10.50;;;2.97;;
9708;SDS011;4893;42.024;23.098;2022-08-16T13:42:38;5.03;;;2.70;;
9708;SDS011;4893;42.024;23.098;2022-08-16T13:45:08;6.60;;;3.07;;
9708;SDS011;4893;42.024;23.098;2022-08-16T13:47:35;3.43;;;2.33;;
9708;SDS011;4893;42.024;23.098;2022-08-16T13:50:01;12.20;;;5.07;;
9708;SDS011;4893;42.024;23.098;2022-08-16T13:52:27;6.97;;;3.57;;
9708;SDS011;4893;42.024;23.098;2022-08-16T13:54:52;6.40;;;4.03;;
9708;SDS011;4893;42.024;23.098;2022-08-16T13:57:18;8.50;;;3.80;;
9708;SDS011;4893;42.024;23.098;2022-08-16T13:59:43;10.13;;;3.13;;
9708;SDS011;4893;42.024;23.098;2022-08-16T14:02:09;9.20;;;2.90;;
9708;SDS011;4893;42.024;23.098;2022-08-16T14:04:36;12.93;;;3.43;;
9708;SDS011;4893;42.024;23.098;2022-08-16T14:07:04;4.77;;;3.10;;
9708;SDS011;4893;42.024;23.098;2022-08-16T14:09:33;6.53;;;3.53;;
9708;SDS011;4893;42.024;23.098;2022-08-16T14:12:00;10.57;;;2.53;;
9708;SDS011;4893;42.024;23.098;2022-08-16T14:14:27;15.97;;;9.03;;
9708;SDS011;4893;42.024;23.098;2022-08-16T14:16:53;6.30;;;3.30;;
9708;SDS011;4893;42.024;23.098;2022-08-16T14:19:18;9.77;;;3.53;;
9708;SDS011;4893;42.024;23.098;2022-08-16T14:21:44;8.60;;;2.90;;
9708;SDS011;4893;42.024;23.098;2022-08-16T14:24:16;28.03;;;17.43;;
9708;SDS011;4893;42.024;23.098;2022-08-16T14:26:42;3.63;;;2.90;;
9708;SDS011;4893;42.024;23.098;2022-08-16T14:29:08;4.83;;;2.57;;
9708;SDS011;4893;42.024;23.098;2022-08-16T14:31:35;4.80;;;3.23;;
9708;SDS011;4893;42.024;23.098;2022-08-16T14:34:08;10.27;;;3.10;;
9708;SDS011;4893;42.024;23.098;2022-08-16T14:36:35;9.33;;;3.37;;
9708;SDS011;4893;42.024;23.098;2022-08-16T14:39:00;5.87;;;3.50;;
9708;SDS011;4893;42.024;23.098;2022-08-16T14:41:26;4.50;;;3.20;;
9708;SDS011;4893;42.024;23.098;2022-08-16T14:43:53;3.30;;;2.23;;
9708;SDS011;4893;42.024;23.098;2022-08-16T14:46:19;7.37;;;2.80;;
9708;SDS011;4893;42.024;23.098;2022-08-16T14:48:45;8.40;;;2.73;;
9708;SDS011;4893;42.024;23.098;2022-08-16T14:51:10;4.40;;;2.47;;
9708;SDS011;4893;42.024;23.098;2022-08-16T14:53:35;3.57;;;3.03;;
9708;SDS011;4893;42.024;23.098;2022-08-16T14:56:01;12.60;;;3.83;;
9708;SDS011;4893;42.024;23.098;2022-08-16T14:58:27;5.53;;;4.30;;
9708;SDS011;4893;42.024;23.098;2022-08-16T15:00:53;9.90;;;3.10;;
9708;SDS011;4893;42.024;23.098;2022-08-16T15:03:19;16.03;;;2.67;;
9708;SDS011;4893;42.024;23.098;2022-08-16T15:05:47;7.90;;;3.63;;
9708;SDS011;4893;42.024;23.098;2022-08-16T15:08:13;7.47;;;3.23;;
9708;SDS011;4893;42.024;23.098;2022-08-16T15:10:38;8.07;;;3.97;;
9708;SDS011;4893;42.024;23.098;2022-08-16T15:13:05;8.27;;;3.97;;
9708;SDS011;4893;42.024;23.098;2022-08-16T15:15:31;8.57;;;4.83;;
9708;SDS011;4893;42.024;23.098;2022-08-16T15:17:58;12.30;;;9.10;;
9708;SDS011;4893;42.024;23.098;2022-08-16T15:20:25;28.27;;;15.03;;
9708;SDS011;4893;42.024;23.098;2022-08-16T15:22:52;14.47;;;7.87;;
9708;SDS011;4893;42.024;23.098;2022-08-16T15:25:19;14.43;;;12.30;;
9708;SDS011;4893;42.024;23.098;2022-08-16T15:27:53;13.53;;;7.00;;
9708;SDS011;4893;42.024;23.098;2022-08-16T15:30:20;7.50;;;4.60;;
9708;SDS011;4893;42.024;23.098;2022-08-16T15:32:48;6.10;;;4.43;;
9708;SDS011;4893;42.024;23.098;2022-08-16T15:35:15;7.77;;;5.80;;
9708;SDS011;4893;42.024;23.098;2022-08-16T15:37:41;11.10;;;7.60;;
9708;SDS011;4893;42.024;23.098;2022-08-16T15:40:08;12.30;;;7.43;;
9708;SDS011;4893;42.024;23.098;2022-08-16T15:42:36;11.67;;;3.83;;
9708;SDS011;4893;42.024;23.098;2022-08-16T15:45:03;4.57;;;3.17;;